sensor_id;sensor_type;location;lat;lon;timestamp;P1;durP1;ratioP1;P2;durP2;ratioP2
35128;SDS011;21301;43.626;10.580;2023-02-03T00:02:23;32.92;;;22.25;;
35128;SDS011;21301;43.626;10.580;2023-02-03T00:04:49;43.95;;;24.83;;
35128;SDS011;21301;43.626;10.580;2023-02-03T00:07:15;45.10;;;25.45;;
35128;SDS011;21301;43.626;10.580;2023-02-03T00:09:41;40.13;;;22.63;;
35128;SDS011;21301;43.626;10.580;2023-02-03T00:12:07;33.35;;;20.65;;
35128;SDS011;21301;43.626;10.580;2023-02-03T00:14:33;36.20;;;20.38;;
35128;SDS011;21301;43.626;10.580;2023-02-03T00:16:59;35.17;;;20.55;;
35128;SDS011;21301;43.626;10.580;2023-02-03T00:19:25;34.47;;;21.13;;
35128;SDS011;21301;43.626;10.580;2023-02-03T00:21:50;36.50;;;18.67;;
35128;SDS011;21301;43.626;10.580;2023-02-03T00:24:16;37.70;;;21.55;;
35128;SDS011;21301;43.626;10.580;2023-02-03T00:26:44;36.08;;;20.05;;
35128;SDS011;21301;43.626;10.580;2023-02-03T00:29:10;46.58;;;24.92;;
35128;SDS011;21301;43.626;10.580;2023-02-03T00:31:36;32.63;;;17.13;;
35128;SDS011;21301;43.626;10.580;2023-02-03T00:34:02;19.25;;;13.55;;
35128;SDS011;21301;43.626;10.580;2023-02-03T00:36:28;28.13;;;15.38;;
35128;SDS011;21301;43.626;10.580;2023-02-03T00:38:53;27.02;;;13.73;;
35128;SDS011;21301;43.626;10.580;2023-02-03T00:41:20;27.45;;;14.00;;
35128;SDS011;21301;43.626;10.580;2023-02-03T00:43:46;27.50;;;14.52;;
35128;SDS011;21301;43.626;10.580;2023-02-03T00:46:13;24.35;;;14.25;;
35128;SDS011;21301;43.626;10.580;2023-02-03T00:48:39;25.65;;;13.95;;
35128;SDS011;21301;43.626;10.580;2023-02-03T00:51:05;24.30;;;12.15;;
35128;SDS011;21301;43.626;10.580;2023-02-03T00:53:31;19.77;;;10.70;;
35128;SDS011;21301;43.626;10.580;2023-02-03T00:55:57;24.08;;;12.48;;
35128;SDS011;21301;43.626;10.580;2023-02-03T00:58:23;26.10;;;12.95;;
35128;SDS011;21301;43.626;10.580;2023-02-03T01:00:49;22.23;;;12.43;;
35128;SDS011;21301;43.626;10.580;2023-02-03T01:03:16;12.80;;;8.55;;
35128;SDS011;21301;43.626;10.580;2023-02-03T01:05:42;13.85;;;6.95;;
35128;SDS011;21301;43.626;10.580;2023-02-03T01:08:08;12.63;;;6.95;;
35128;SDS011;21301;43.626;10.580;2023-02-03T01:10:36;15.15;;;7.65;;
35128;SDS011;21301;43.626;10.580;2023-02-03T01:13:02;18.13;;;9.73;;
35128;SDS011;21301;43.626;10.580;2023-02-03T01:15:28;17.35;;;7.65;;
35128;SDS011;21301;43.626;10.580;2023-02-03T01:17:54;12.68;;;7.25;;
35128;SDS011;21301;43.626;10.580;2023-02-03T01:20:21;15.27;;;8.15;;
35128;SDS011;21301;43.626;10.580;2023-02-03T01:22:48;13.85;;;7.35;;
35128;SDS011;21301;43.626;10.580;2023-02-03T01:25:14;10.32;;;6.10;;
35128;SDS011;21301;43.626;10.580;2023-02-03T01:27:39;11.82;;;6.63;;
35128;SDS011;21301;43.626;10.580;2023-02-03T01:30:05;18.13;;;7.88;;
35128;SDS011;21301;43.626;10.580;2023-02-03T01:32:32;12.90;;;7.35;;
35128;SDS011;21301;43.626;10.580;2023-02-03T01:34:58;13.63;;;8.30;;
35128;SDS011;21301;43.626;10.580;2023-02-03T01:37:24;15.38;;;7.28;;
35128;SDS011;21301;43.626;10.580;2023-02-03T01:39:52;21.10;;;9.10;;
35128;SDS011;21301;43.626;10.580;2023-02-03T01:42:18;18.77;;;7.38;;
35128;SDS011;21301;43.626;10.580;2023-02-03T01:44:45;14.18;;;6.95;;
35128;SDS011;21301;43.626;10.580;2023-02-03T01:50:11;26.35;;;8.10;;
35128;SDS011;21301;43.626;10.580;2023-02-03T01:52:36;17.50;;;8.98;;
35128;SDS011;21301;43.626;10.580;2023-02-03T01:55:06;16.98;;;7.35;;
35128;SDS011;21301;43.626;10.580;2023-02-03T01:57:42;12.18;;;7.55;;
35128;SDS011;21301;43.626;10.580;2023-02-03T02:00:10;14.25;;;7.10;;
35128;SDS011;21301;43.626;10.580;2023-02-03T02:02:40;9.38;;;5.72;;
35128;SDS011;21301;43.626;10.580;2023-02-03T02:07:42;10.93;;;6.20;;
35128;SDS011;21301;43.626;10.580;2023-02-03T02:10:11;13.48;;;5.93;;
35128;SDS011;21301;43.626;10.580;2023-02-03T02:12:40;13.65;;;5.80;;
35128;SDS011;21301;43.626;10.580;2023-02-03T02:15:06;12.77;;;6.07;;
35128;SDS011;21301;43.626;10.580;2023-02-03T02:17:58;13.32;;;6.60;;
35128;SDS011;21301;43.626;10.580;2023-02-03T02:20:31;12.52;;;6.13;;
35128;SDS011;21301;43.626;10.580;2023-02-03T02:25:47;15.38;;;8.60;;
35128;SDS011;21301;43.626;10.580;2023-02-03T02:45:21;10.88;;;5.70;;
35128;SDS011;21301;43.626;10.580;2023-02-03T02:47:58;12.10;;;6.13;;
35128;SDS011;21301;43.626;10.580;2023-02-03T02:50:33;12.25;;;6.13;;
35128;SDS011;21301;43.626;10.580;2023-02-03T02:53:01;13.48;;;6.65;;
35128;SDS011;21301;43.626;10.580;2023-02-03T02:55:30;13.95;;;6.30;;
35128;SDS011;21301;43.626;10.580;2023-02-03T02:58:02;14.57;;;7.47;;
35128;SDS011;21301;43.626;10.580;2023-02-03T03:00:32;12.60;;;7.18;;
35128;SDS011;21301;43.626;10.580;2023-02-03T03:03:21;11.20;;;6.35;;
35128;SDS011;21301;43.626;10.580;2023-02-03T03:08:28;17.67;;;7.80;;
35128;SDS011;21301;43.626;10.580;2023-02-03T03:10:59;12.32;;;5.93;;
35128;SDS011;21301;43.626;10.580;2023-02-03T03:13:29;12.45;;;7.00;;
35128;SDS011;21301;43.626;10.580;2023-02-03T03:15:59;12.48;;;5.35;;
35128;SDS011;21301;43.626;10.580;2023-02-03T03:18:32;12.95;;;6.55;;
35128;SDS011;21301;43.626;10.580;2023-02-03T03:21:03;14.25;;;7.03;;
35128;SDS011;21301;43.626;10.580;2023-02-03T03:23:32;12.88;;;6.32;;
35128;SDS011;21301;43.626;10.580;2023-02-03T03:29:11;12.07;;;6.03;;
35128;SDS011;21301;43.626;10.580;2023-02-03T03:31:55;13.43;;;5.75;;
35128;SDS011;21301;43.626;10.580;2023-02-03T03:34:21;10.02;;;5.65;;
35128;SDS011;21301;43.626;10.580;2023-02-03T03:36:58;11.30;;;5.55;;
35128;SDS011;21301;43.626;10.580;2023-02-03T03:44:42;12.18;;;6.57;;
35128;SDS011;21301;43.626;10.580;2023-02-03T03:49:48;10.82;;;6.03;;
35128;SDS011;21301;43.626;10.580;2023-02-03T03:52:19;13.35;;;6.45;;
35128;SDS011;21301;43.626;10.580;2023-02-03T03:54:49;10.18;;;5.80;;
35128;SDS011;21301;43.626;10.580;2023-02-03T03:57:28;13.48;;;5.82;;
35128;SDS011;21301;43.626;10.580;2023-02-03T04:00:02;13.25;;;6.55;;
35128;SDS011;21301;43.626;10.580;2023-02-03T04:02:37;13.82;;;6.60;;
35128;SDS011;21301;43.626;10.580;2023-02-03T04:05:05;12.10;;;5.90;;
35128;SDS011;21301;43.626;10.580;2023-02-03T04:07:42;12.15;;;5.43;;
35128;SDS011;21301;43.626;10.580;2023-02-03T04:12:47;9.05;;;5.28;;
35128;SDS011;21301;43.626;10.580;2023-02-03T04:15:13;11.38;;;5.75;;
35128;SDS011;21301;43.626;10.580;2023-02-03T04:17:39;8.50;;;4.78;;
35128;SDS011;21301;43.626;10.580;2023-02-03T04:20:05;11.07;;;6.45;;
35128;SDS011;21301;43.626;10.580;2023-02-03T04:22:31;10.65;;;5.53;;
35128;SDS011;21301;43.626;10.580;2023-02-03T04:24:56;12.80;;;6.03;;
35128;SDS011;21301;43.626;10.580;2023-02-03T04:27:23;10.95;;;6.38;;
35128;SDS011;21301;43.626;10.580;2023-02-03T04:29:50;13.35;;;5.85;;
35128;SDS011;21301;43.626;10.580;2023-02-03T04:32:16;12.15;;;5.55;;
35128;SDS011;21301;43.626;10.580;2023-02-03T04:34:42;9.60;;;5.53;;
35128;SDS011;21301;43.626;10.580;2023-02-03T04:37:08;13.73;;;5.75;;
35128;SDS011;21301;43.626;10.580;2023-02-03T04:39:33;8.25;;;5.18;;
35128;SDS011;21301;43.626;10.580;2023-02-03T04:41:59;13.18;;;5.50;;
35128;SDS011;21301;43.626;10.580;2023-02-03T04:44:25;14.57;;;5.95;;
35128;SDS011;21301;43.626;10.580;2023-02-03T04:46:51;11.68;;;5.40;;
35128;SDS011;21301;43.626;10.580;2023-02-03T04:49:16;13.32;;;5.72;;
35128;SDS011;21301;43.626;10.580;2023-02-03T04:51:42;9.05;;;4.57;;
35128;SDS011;21301;43.626;10.580;2023-02-03T04:54:09;14.75;;;5.68;;
35128;SDS011;21301;43.626;10.580;2023-02-03T04:56:35;10.32;;;5.65;;
35128;SDS011;21301;43.626;10.580;2023-02-03T04:59:02;11.50;;;5.20;;
35128;SDS011;21301;43.626;10.580;2023-02-03T05:01:28;12.75;;;6.18;;
35128;SDS011;21301;43.626;10.580;2023-02-03T05:03:54;13.45;;;5.82;;
35128;SDS011;21301;43.626;10.580;2023-02-03T05:06:26;12.43;;;6.32;;
35128;SDS011;21301;43.626;10.580;2023-02-03T05:08:54;14.30;;;6.10;;
35128;SDS011;21301;43.626;10.580;2023-02-03T05:11:20;11.23;;;5.85;;
35128;SDS011;21301;43.626;10.580;2023-02-03T05:13:46;11.10;;;6.85;;
35128;SDS011;21301;43.626;10.580;2023-02-03T05:16:12;10.27;;;6.15;;
35128;SDS011;21301;43.626;10.580;2023-02-03T05:18:38;12.98;;;6.35;;
35128;SDS011;21301;43.626;10.580;2023-02-03T05:21:04;11.98;;;6.57;;
35128;SDS011;21301;43.626;10.580;2023-02-03T05:23:30;16.30;;;7.25;;
35128;SDS011;21301;43.626;10.580;2023-02-03T05:25:56;10.45;;;6.65;;
35128;SDS011;21301;43.626;10.580;2023-02-03T05:28:22;13.30;;;6.97;;
35128;SDS011;21301;43.626;10.580;2023-02-03T05:30:47;11.98;;;6.55;;
35128;SDS011;21301;43.626;10.580;2023-02-03T05:33:13;13.00;;;7.70;;
35128;SDS011;21301;43.626;10.580;2023-02-03T05:35:39;12.68;;;8.38;;
35128;SDS011;21301;43.626;10.580;2023-02-03T05:38:05;13.68;;;8.02;;
35128;SDS011;21301;43.626;10.580;2023-02-03T05:40:31;12.52;;;7.70;;
35128;SDS011;21301;43.626;10.580;2023-02-03T05:43:16;15.18;;;8.43;;
35128;SDS011;21301;43.626;10.580;2023-02-03T05:45:42;18.48;;;7.57;;
35128;SDS011;21301;43.626;10.580;2023-02-03T05:48:08;17.85;;;8.02;;
35128;SDS011;21301;43.626;10.580;2023-02-03T05:50:34;14.98;;;8.25;;
35128;SDS011;21301;43.626;10.580;2023-02-03T05:53:06;11.45;;;7.03;;
35128;SDS011;21301;43.626;10.580;2023-02-03T05:55:32;11.35;;;7.15;;
35128;SDS011;21301;43.626;10.580;2023-02-03T05:57:59;12.13;;;7.38;;
35128;SDS011;21301;43.626;10.580;2023-02-03T06:00:25;12.43;;;7.65;;
35128;SDS011;21301;43.626;10.580;2023-02-03T06:02:52;13.60;;;7.47;;
35128;SDS011;21301;43.626;10.580;2023-02-03T06:05:23;15.98;;;10.35;;
35128;SDS011;21301;43.626;10.580;2023-02-03T06:07:50;14.10;;;8.88;;
35128;SDS011;21301;43.626;10.580;2023-02-03T06:10:16;15.40;;;8.75;;
35128;SDS011;21301;43.626;10.580;2023-02-03T06:12:42;15.43;;;8.93;;
35128;SDS011;21301;43.626;10.580;2023-02-03T06:15:08;16.67;;;8.48;;
35128;SDS011;21301;43.626;10.580;2023-02-03T06:17:35;14.73;;;8.50;;
35128;SDS011;21301;43.626;10.580;2023-02-03T06:20:04;16.15;;;9.48;;
35128;SDS011;21301;43.626;10.580;2023-02-03T06:22:32;19.40;;;9.75;;
35128;SDS011;21301;43.626;10.580;2023-02-03T06:24:58;15.15;;;7.95;;
35128;SDS011;21301;43.626;10.580;2023-02-03T06:27:24;15.70;;;7.13;;
35128;SDS011;21301;43.626;10.580;2023-02-03T06:29:50;16.20;;;7.78;;
35128;SDS011;21301;43.626;10.580;2023-02-03T06:32:16;16.42;;;7.75;;
35128;SDS011;21301;43.626;10.580;2023-02-03T06:34:41;22.38;;;8.55;;
35128;SDS011;21301;43.626;10.580;2023-02-03T06:37:07;14.25;;;7.50;;
35128;SDS011;21301;43.626;10.580;2023-02-03T06:39:33;13.45;;;8.52;;
35128;SDS011;21301;43.626;10.580;2023-02-03T06:41:59;14.65;;;7.35;;
35128;SDS011;21301;43.626;10.580;2023-02-03T06:44:25;18.73;;;7.32;;
35128;SDS011;21301;43.626;10.580;2023-02-03T06:46:51;15.25;;;7.88;;
35128;SDS011;21301;43.626;10.580;2023-02-03T06:49:17;12.73;;;7.68;;
35128;SDS011;21301;43.626;10.580;2023-02-03T06:51:43;15.32;;;7.72;;
35128;SDS011;21301;43.626;10.580;2023-02-03T06:54:10;17.38;;;8.95;;
35128;SDS011;21301;43.626;10.580;2023-02-03T06:56:36;20.50;;;9.68;;
35128;SDS011;21301;43.626;10.580;2023-02-03T06:59:02;18.95;;;10.10;;
35128;SDS011;21301;43.626;10.580;2023-02-03T07:01:28;22.88;;;9.55;;
35128;SDS011;21301;43.626;10.580;2023-02-03T07:03:55;20.67;;;10.05;;
35128;SDS011;21301;43.626;10.580;2023-02-03T07:06:26;15.73;;;10.10;;
35128;SDS011;21301;43.626;10.580;2023-02-03T07:08:54;14.52;;;8.63;;
35128;SDS011;21301;43.626;10.580;2023-02-03T07:11:20;13.55;;;8.98;;
35128;SDS011;21301;43.626;10.580;2023-02-03T07:13:46;18.88;;;9.60;;
35128;SDS011;21301;43.626;10.580;2023-02-03T07:16:12;14.52;;;8.68;;
35128;SDS011;21301;43.626;10.580;2023-02-03T07:18:38;17.20;;;9.88;;
35128;SDS011;21301;43.626;10.580;2023-02-03T07:21:05;18.92;;;9.60;;
35128;SDS011;21301;43.626;10.580;2023-02-03T07:23:31;20.33;;;9.98;;
35128;SDS011;21301;43.626;10.580;2023-02-03T07:25:58;18.73;;;11.40;;
35128;SDS011;21301;43.626;10.580;2023-02-03T07:28:24;18.50;;;9.77;;
35128;SDS011;21301;43.626;10.580;2023-02-03T07:30:50;22.42;;;11.95;;
35128;SDS011;21301;43.626;10.580;2023-02-03T07:33:15;24.80;;;10.25;;
35128;SDS011;21301;43.626;10.580;2023-02-03T07:35:41;13.93;;;8.57;;
35128;SDS011;21301;43.626;10.580;2023-02-03T07:38:07;15.95;;;10.43;;
35128;SDS011;21301;43.626;10.580;2023-02-03T07:40:33;20.00;;;11.65;;
35128;SDS011;21301;43.626;10.580;2023-02-03T07:42:58;16.60;;;9.13;;
35128;SDS011;21301;43.626;10.580;2023-02-03T07:45:24;16.98;;;8.60;;
35128;SDS011;21301;43.626;10.580;2023-02-03T07:47:50;27.00;;;10.10;;
35128;SDS011;21301;43.626;10.580;2023-02-03T07:50:16;22.98;;;9.75;;
35128;SDS011;21301;43.626;10.580;2023-02-03T07:52:42;21.30;;;10.40;;
35128;SDS011;21301;43.626;10.580;2023-02-03T07:55:08;21.23;;;10.52;;
35128;SDS011;21301;43.626;10.580;2023-02-03T07:57:34;20.35;;;9.25;;
35128;SDS011;21301;43.626;10.580;2023-02-03T08:00:02;27.23;;;9.43;;
35128;SDS011;21301;43.626;10.580;2023-02-03T08:02:37;21.27;;;11.07;;
35128;SDS011;21301;43.626;10.580;2023-02-03T08:05:03;20.50;;;13.25;;
35128;SDS011;21301;43.626;10.580;2023-02-03T08:07:29;20.65;;;13.05;;
35128;SDS011;21301;43.626;10.580;2023-02-03T08:09:55;21.23;;;12.88;;
35128;SDS011;21301;43.626;10.580;2023-02-03T08:12:21;26.15;;;15.50;;
35128;SDS011;21301;43.626;10.580;2023-02-03T08:14:46;23.65;;;13.60;;
35128;SDS011;21301;43.626;10.580;2023-02-03T08:17:12;24.85;;;14.75;;
35128;SDS011;21301;43.626;10.580;2023-02-03T08:19:38;24.98;;;14.00;;
35128;SDS011;21301;43.626;10.580;2023-02-03T08:22:04;19.13;;;13.23;;
35128;SDS011;21301;43.626;10.580;2023-02-03T08:24:30;25.77;;;13.85;;
35128;SDS011;21301;43.626;10.580;2023-02-03T08:26:56;22.98;;;12.75;;
35128;SDS011;21301;43.626;10.580;2023-02-03T08:29:22;22.65;;;12.80;;
35128;SDS011;21301;43.626;10.580;2023-02-03T08:31:47;21.83;;;13.07;;
35128;SDS011;21301;43.626;10.580;2023-02-03T08:34:13;19.33;;;13.70;;
35128;SDS011;21301;43.626;10.580;2023-02-03T08:36:39;32.22;;;15.20;;
35128;SDS011;21301;43.626;10.580;2023-02-03T08:39:05;22.95;;;14.65;;
35128;SDS011;21301;43.626;10.580;2023-02-03T08:41:31;21.55;;;13.68;;
35128;SDS011;21301;43.626;10.580;2023-02-03T08:43:58;21.58;;;12.77;;
35128;SDS011;21301;43.626;10.580;2023-02-03T08:46:25;22.73;;;12.95;;
35128;SDS011;21301;43.626;10.580;2023-02-03T08:48:52;23.23;;;11.45;;
35128;SDS011;21301;43.626;10.580;2023-02-03T08:51:20;24.80;;;12.23;;
35128;SDS011;21301;43.626;10.580;2023-02-03T08:53:46;22.75;;;12.93;;
35128;SDS011;21301;43.626;10.580;2023-02-03T08:56:12;17.52;;;12.10;;
35128;SDS011;21301;43.626;10.580;2023-02-03T08:58:38;20.33;;;12.40;;
35128;SDS011;21301;43.626;10.580;2023-02-03T09:01:05;30.50;;;18.02;;
35128;SDS011;21301;43.626;10.580;2023-02-03T09:03:33;28.63;;;17.65;;
35128;SDS011;21301;43.626;10.580;2023-02-03T09:05:59;28.20;;;16.85;;
35128;SDS011;21301;43.626;10.580;2023-02-03T09:08:25;33.15;;;18.27;;
35128;SDS011;21301;43.626;10.580;2023-02-03T09:10:50;23.75;;;14.68;;
35128;SDS011;21301;43.626;10.580;2023-02-03T09:13:16;31.52;;;15.70;;
35128;SDS011;21301;43.626;10.580;2023-02-03T09:15:42;26.30;;;15.60;;
35128;SDS011;21301;43.626;10.580;2023-02-03T09:18:08;25.67;;;16.40;;
35128;SDS011;21301;43.626;10.580;2023-02-03T09:20:33;31.77;;;17.98;;
35128;SDS011;21301;43.626;10.580;2023-02-03T09:22:59;27.67;;;16.30;;
35128;SDS011;21301;43.626;10.580;2023-02-03T09:25:25;28.42;;;17.10;;
35128;SDS011;21301;43.626;10.580;2023-02-03T09:27:50;25.80;;;14.90;;
35128;SDS011;21301;43.626;10.580;2023-02-03T09:30:16;23.67;;;15.38;;
35128;SDS011;21301;43.626;10.580;2023-02-03T09:32:42;25.42;;;16.58;;
35128;SDS011;21301;43.626;10.580;2023-02-03T09:35:08;23.55;;;14.40;;
35128;SDS011;21301;43.626;10.580;2023-02-03T09:37:34;29.00;;;18.05;;
35128;SDS011;21301;43.626;10.580;2023-02-03T09:40:00;25.05;;;14.07;;
35128;SDS011;21301;43.626;10.580;2023-02-03T09:42:27;29.70;;;14.82;;
35128;SDS011;21301;43.626;10.580;2023-02-03T09:47:36;27.17;;;16.35;;
35128;SDS011;21301;43.626;10.580;2023-02-03T09:50:27;24.52;;;15.95;;
35128;SDS011;21301;43.626;10.580;2023-02-03T09:52:54;28.52;;;15.48;;
35128;SDS011;21301;43.626;10.580;2023-02-03T09:58:11;22.63;;;13.02;;
35128;SDS011;21301;43.626;10.580;2023-02-03T10:00:42;22.40;;;13.70;;
35128;SDS011;21301;43.626;10.580;2023-02-03T10:10:50;28.20;;;14.93;;
35128;SDS011;21301;43.626;10.580;2023-02-03T10:18:53;42.40;;;11.98;;
35128;SDS011;21301;43.626;10.580;2023-02-03T10:23:53;20.08;;;10.10;;
35128;SDS011;21301;43.626;10.580;2023-02-03T10:26:24;23.65;;;10.73;;
35128;SDS011;21301;43.626;10.580;2023-02-03T10:31:43;22.13;;;11.93;;
35128;SDS011;21301;43.626;10.580;2023-02-03T10:34:15;22.38;;;11.10;;
35128;SDS011;21301;43.626;10.580;2023-02-03T10:36:52;18.05;;;10.80;;
35128;SDS011;21301;43.626;10.580;2023-02-03T10:39:35;24.45;;;12.55;;
35128;SDS011;21301;43.626;10.580;2023-02-03T10:42:07;16.95;;;10.13;;
35128;SDS011;21301;43.626;10.580;2023-02-03T10:44:40;20.98;;;9.85;;
35128;SDS011;21301;43.626;10.580;2023-02-03T10:49:49;19.88;;;9.68;;
35128;SDS011;21301;43.626;10.580;2023-02-03T10:52:23;14.60;;;8.13;;
35128;SDS011;21301;43.626;10.580;2023-02-03T10:54:51;12.43;;;7.68;;
35128;SDS011;21301;43.626;10.580;2023-02-03T10:57:18;13.43;;;8.27;;
35128;SDS011;21301;43.626;10.580;2023-02-03T10:59:44;14.02;;;7.22;;
35128;SDS011;21301;43.626;10.580;2023-02-03T11:02:26;15.75;;;6.95;;
35128;SDS011;21301;43.626;10.580;2023-02-03T11:05:10;12.35;;;6.45;;
35128;SDS011;21301;43.626;10.580;2023-02-03T11:07:49;15.93;;;7.35;;
35128;SDS011;21301;43.626;10.580;2023-02-03T11:10:48;13.25;;;8.07;;
35128;SDS011;21301;43.626;10.580;2023-02-03T11:15:50;16.95;;;8.88;;
35128;SDS011;21301;43.626;10.580;2023-02-03T11:21:12;10.90;;;6.90;;
35128;SDS011;21301;43.626;10.580;2023-02-03T11:23:48;13.85;;;6.85;;
35128;SDS011;21301;43.626;10.580;2023-02-03T11:26:23;14.00;;;7.82;;
35128;SDS011;21301;43.626;10.580;2023-02-03T11:28:52;10.18;;;6.22;;
35128;SDS011;21301;43.626;10.580;2023-02-03T11:31:21;8.57;;;5.15;;
35128;SDS011;21301;43.626;10.580;2023-02-03T11:33:50;8.98;;;5.22;;
35128;SDS011;21301;43.626;10.580;2023-02-03T11:36:19;10.60;;;5.03;;
35128;SDS011;21301;43.626;10.580;2023-02-03T11:38:45;11.05;;;5.50;;
35128;SDS011;21301;43.626;10.580;2023-02-03T11:41:14;12.73;;;5.35;;
35128;SDS011;21301;43.626;10.580;2023-02-03T11:43:42;10.95;;;4.80;;
35128;SDS011;21301;43.626;10.580;2023-02-03T11:46:08;9.73;;;4.95;;
35128;SDS011;21301;43.626;10.580;2023-02-03T11:48:35;8.95;;;4.85;;
35128;SDS011;21301;43.626;10.580;2023-02-03T11:59:35;11.10;;;4.72;;
35128;SDS011;21301;43.626;10.580;2023-02-03T12:05:03;13.13;;;5.35;;
35128;SDS011;21301;43.626;10.580;2023-02-03T12:08:04;13.35;;;5.38;;
35128;SDS011;21301;43.626;10.580;2023-02-03T12:16:24;10.45;;;4.97;;
35128;SDS011;21301;43.626;10.580;2023-02-03T12:25:19;13.88;;;5.22;;
35128;SDS011;21301;43.626;10.580;2023-02-03T12:28:04;10.90;;;4.68;;
35128;SDS011;21301;43.626;10.580;2023-02-03T12:30:46;14.30;;;4.60;;
35128;SDS011;21301;43.626;10.580;2023-02-03T12:33:19;11.57;;;4.13;;
35128;SDS011;21301;43.626;10.580;2023-02-03T12:35:59;15.30;;;4.63;;
35128;SDS011;21301;43.626;10.580;2023-02-03T12:41:13;6.25;;;2.53;;
35128;SDS011;21301;43.626;10.580;2023-02-03T12:43:47;8.73;;;3.25;;
35128;SDS011;21301;43.626;10.580;2023-02-03T12:46:18;7.50;;;2.55;;
35128;SDS011;21301;43.626;10.580;2023-02-03T12:51:55;13.40;;;4.05;;
35128;SDS011;21301;43.626;10.580;2023-02-03T13:00:46;6.93;;;1.92;;
35128;SDS011;21301;43.626;10.580;2023-02-03T13:12:07;5.30;;;1.77;;
35128;SDS011;21301;43.626;10.580;2023-02-03T13:17:33;8.60;;;2.38;;
35128;SDS011;21301;43.626;10.580;2023-02-03T13:20:14;5.30;;;2.20;;
35128;SDS011;21301;43.626;10.580;2023-02-03T13:22:43;6.28;;;2.20;;
35128;SDS011;21301;43.626;10.580;2023-02-03T13:33:30;5.22;;;2.10;;
35128;SDS011;21301;43.626;10.580;2023-02-03T13:42:37;6.65;;;2.47;;
35128;SDS011;21301;43.626;10.580;2023-02-03T13:50:40;9.10;;;2.10;;
35128;SDS011;21301;43.626;10.580;2023-02-03T13:55:42;4.57;;;1.95;;
35128;SDS011;21301;43.626;10.580;2023-02-03T14:03:15;3.92;;;2.00;;
35128;SDS011;21301;43.626;10.580;2023-02-03T14:05:47;7.57;;;2.25;;
35128;SDS011;21301;43.626;10.580;2023-02-03T14:16:45;7.75;;;2.60;;
35128;SDS011;21301;43.626;10.580;2023-02-03T14:24:13;5.47;;;2.08;;
35128;SDS011;21301;43.626;10.580;2023-02-03T14:26:59;5.07;;;2.00;;
35128;SDS011;21301;43.626;10.580;2023-02-03T14:29:29;7.05;;;2.30;;
35128;SDS011;21301;43.626;10.580;2023-02-03T14:32:08;5.47;;;2.05;;
35128;SDS011;21301;43.626;10.580;2023-02-03T14:34:39;7.38;;;2.92;;
35128;SDS011;21301;43.626;10.580;2023-02-03T14:42:52;12.23;;;1.98;;
35128;SDS011;21301;43.626;10.580;2023-02-03T14:53:50;4.72;;;1.98;;
35128;SDS011;21301;43.626;10.580;2023-02-03T14:56:30;7.55;;;2.42;;
35128;SDS011;21301;43.626;10.580;2023-02-03T14:59:22;5.75;;;2.30;;
35128;SDS011;21301;43.626;10.580;2023-02-03T15:04:22;7.40;;;2.15;;
35128;SDS011;21301;43.626;10.580;2023-02-03T15:06:49;9.77;;;2.83;;
35128;SDS011;21301;43.626;10.580;2023-02-03T15:11:43;10.98;;;3.35;;
35128;SDS011;21301;43.626;10.580;2023-02-03T15:14:13;5.97;;;2.35;;
35128;SDS011;21301;43.626;10.580;2023-02-03T15:16:48;6.80;;;2.22;;
35128;SDS011;21301;43.626;10.580;2023-02-03T15:19:24;9.77;;;3.50;;
35128;SDS011;21301;43.626;10.580;2023-02-03T15:21:52;7.38;;;1.75;;
35128;SDS011;21301;43.626;10.580;2023-02-03T15:24:19;7.10;;;2.88;;
35128;SDS011;21301;43.626;10.580;2023-02-03T15:26:54;8.73;;;2.45;;
35128;SDS011;21301;43.626;10.580;2023-02-03T15:29:30;5.13;;;1.98;;
35128;SDS011;21301;43.626;10.580;2023-02-03T15:32:02;8.57;;;3.35;;
35128;SDS011;21301;43.626;10.580;2023-02-03T15:34:51;8.48;;;2.10;;
35128;SDS011;21301;43.626;10.580;2023-02-03T15:42:26;5.57;;;2.70;;
35128;SDS011;21301;43.626;10.580;2023-02-03T15:45:06;6.35;;;2.42;;
35128;SDS011;21301;43.626;10.580;2023-02-03T15:47:50;6.38;;;2.17;;
35128;SDS011;21301;43.626;10.580;2023-02-03T15:53:02;10.48;;;3.33;;
35128;SDS011;21301;43.626;10.580;2023-02-03T15:55:35;9.85;;;3.80;;
35128;SDS011;21301;43.626;10.580;2023-02-03T15:58:12;6.13;;;2.42;;
35128;SDS011;21301;43.626;10.580;2023-02-03T16:00:46;11.00;;;2.67;;
35128;SDS011;21301;43.626;10.580;2023-02-03T16:03:16;13.50;;;3.17;;
35128;SDS011;21301;43.626;10.580;2023-02-03T16:05:45;10.30;;;3.08;;
35128;SDS011;21301;43.626;10.580;2023-02-03T16:11:29;6.35;;;3.38;;
35128;SDS011;21301;43.626;10.580;2023-02-03T16:13:59;7.32;;;4.57;;
35128;SDS011;21301;43.626;10.580;2023-02-03T16:16:32;9.00;;;3.25;;
35128;SDS011;21301;43.626;10.580;2023-02-03T16:19:13;15.23;;;5.25;;
35128;SDS011;21301;43.626;10.580;2023-02-03T16:29:49;12.25;;;5.93;;
35128;SDS011;21301;43.626;10.580;2023-02-03T16:32:37;6.93;;;2.47;;
35128;SDS011;21301;43.626;10.580;2023-02-03T16:35:22;10.57;;;3.10;;
35128;SDS011;21301;43.626;10.580;2023-02-03T16:38:11;9.77;;;2.70;;
35128;SDS011;21301;43.626;10.580;2023-02-03T16:40:59;8.75;;;2.55;;
35128;SDS011;21301;43.626;10.580;2023-02-03T16:43:43;9.40;;;3.25;;
35128;SDS011;21301;43.626;10.580;2023-02-03T16:46:28;19.85;;;4.57;;
35128;SDS011;21301;43.626;10.580;2023-02-03T16:49:13;6.38;;;2.80;;
35128;SDS011;21301;43.626;10.580;2023-02-03T16:51:57;22.02;;;4.10;;
35128;SDS011;21301;43.626;10.580;2023-02-03T16:54:23;26.48;;;12.82;;
35128;SDS011;21301;43.626;10.580;2023-02-03T16:56:51;8.60;;;3.40;;
35128;SDS011;21301;43.626;10.580;2023-02-03T16:59:17;5.22;;;2.97;;
35128;SDS011;21301;43.626;10.580;2023-02-03T17:01:43;9.90;;;3.53;;
35128;SDS011;21301;43.626;10.580;2023-02-03T17:04:09;9.05;;;3.88;;
35128;SDS011;21301;43.626;10.580;2023-02-03T17:06:36;14.23;;;5.75;;
35128;SDS011;21301;43.626;10.580;2023-02-03T17:09:02;16.65;;;5.18;;
35128;SDS011;21301;43.626;10.580;2023-02-03T17:11:28;34.80;;;16.25;;
35128;SDS011;21301;43.626;10.580;2023-02-03T17:13:54;31.08;;;8.90;;
35128;SDS011;21301;43.626;10.580;2023-02-03T17:16:22;12.63;;;5.53;;
35128;SDS011;21301;43.626;10.580;2023-02-03T17:18:50;9.35;;;5.47;;
35128;SDS011;21301;43.626;10.580;2023-02-03T17:21:18;13.95;;;5.85;;
35128;SDS011;21301;43.626;10.580;2023-02-03T17:23:46;10.98;;;6.28;;
35128;SDS011;21301;43.626;10.580;2023-02-03T17:26:11;15.32;;;5.57;;
35128;SDS011;21301;43.626;10.580;2023-02-03T17:28:38;14.45;;;5.82;;
35128;SDS011;21301;43.626;10.580;2023-02-03T17:31:05;12.82;;;5.32;;
35128;SDS011;21301;43.626;10.580;2023-02-03T17:33:32;15.15;;;5.93;;
35128;SDS011;21301;43.626;10.580;2023-02-03T17:36:06;10.40;;;5.45;;
35128;SDS011;21301;43.626;10.580;2023-02-03T17:38:39;12.80;;;5.47;;
35128;SDS011;21301;43.626;10.580;2023-02-03T17:41:13;11.18;;;5.47;;
35128;SDS011;21301;43.626;10.580;2023-02-03T17:43:41;12.20;;;5.72;;
35128;SDS011;21301;43.626;10.580;2023-02-03T17:46:08;11.10;;;6.10;;
35128;SDS011;21301;43.626;10.580;2023-02-03T17:48:35;9.88;;;5.97;;
35128;SDS011;21301;43.626;10.580;2023-02-03T17:51:08;10.70;;;5.43;;
35128;SDS011;21301;43.626;10.580;2023-02-03T17:53:34;33.85;;;9.10;;
35128;SDS011;21301;43.626;10.580;2023-02-03T17:56:05;35.50;;;6.22;;